Aérodrome :
LOGIN :

S'inscrire | Disclaimer

   EN    FR    IT 

 










Légende :    VFR   VFR Marginal   IFR   IFR Intensif   IFR Très Intensif
Visi : 
Plafond : 
>= 8 km
>= 3000ft
5 à 8 km
1000 à 3000 ft
1500m à 5 km
500 à 1000 ft
800 à 1500m
200 à 500 ft
< 800m
< 200 ft
Symboles :   Orages  Brouillard  Fortes neiges  Fortes précipitations  Vent > 20 kt
SIGMETs :   Divers  Orages  Givrage  Turbulence  Onde Orograph.  Cendres Volcan.






- Altitude de l'aérodrome : 2026 ft
- Code IATA : TOJ


LETO - Madrid Torrejon

DERNIER METAR :
  • 010800Z 05003KT 9999 FEW060 16/07 Q1019 NOSIG

METARs EXPIRÉS :
  • 010730Z 04004KT 340V080 CAVOK 14/07 Q1019 NOSIG
  • 010700Z 02005KT 340V060 CAVOK 13/07 Q1019 NOSIG
  • 010630Z 03004KT 360V060 CAVOK 12/07 Q1018 NOSIG
  • 010600Z 04004KT 010V080 CAVOK 11/07 Q1018 NOSIG
  • 010530Z 03004KT CAVOK 10/07 Q1018 NOSIG

TAF AMD TAF LETO
Valide du 01 à 06h jusqu'au 02 à 06h UTC


010544Z 0106/0206 03010KT CAVOK TX28/0116Z TN12/0106Z
BECMG 0108/0110 VRB05KT
TEMPO 0113/0120 24005KT
PROB30
TEMPO 0112/0117 FEW050TCU
BECMG 0121/0123 03006KT



MET'MAP, la Météo Aéronautique d'un coup d'oeil ! - Copyright ORBIFLY Décembre 2007 - Disclaimer

ORBIFLY MET'MAP TEAM :

Programmation & Développement : Alexandra Zaïnal
Sur une idée originale de : Baudouin d'Aumeries
Assistance à la programmation : Marc-Olivier Méhu
Soutien technique & logistique : Manuel Goepfert

Contact : metmap@orbifly.com




SOURCES & CREDITS :

   NOAA